Terminal Aerodrome Forecast
Issued by NWS

Home | Current Version | Previous Version | Text Only | Print | Product List | Glossary On
Versions: 1 2 3 4 5 6 7 8 9 10 11 12 13 14 15 16 17 18 19
000
FTPQ31 PGUM 172320
TAFGUM
TAF

TAF
PGRO 172320Z 1800/1824 05017G28KT P6SM VCSH SCT011 BKN040 OVC070
      TEMPO 1800/1804 4SM SHRA OVC011
     FM180800 07015G25KT P6SM VCSH SCT012 SCT025 BKN120=

USA.gov is the U.S. government's official web portal to all federal, state and local government web resources and services.